createdAt,value
2023-03-31T00:02:21.918Z,7.07
2023-03-31T00:04:49.710Z,14.80
2023-03-31T00:07:26.414Z,10.33
2023-03-31T00:09:58.542Z,9.23
2023-03-31T00:12:34.480Z,12.07
2023-03-31T00:15:01.749Z,11.90
2023-03-31T00:17:45.734Z,9.37
2023-03-31T00:20:25.607Z,9.70
2023-03-31T00:26:03.050Z,10.87
2023-03-31T00:28:30.418Z,11.60
2023-03-31T00:31:00.806Z,9.53
2023-03-31T00:33:29.531Z,13.57
2023-03-31T00:35:56.774Z,11.47
2023-03-31T00:41:41.349Z,9.73
2023-03-31T00:44:11.096Z,7.30
2023-03-31T00:46:41.317Z,11.67
2023-03-31T00:55:58.321Z,11.83
2023-03-31T00:58:26.836Z,15.93
2023-03-31T01:00:54.525Z,11.53
2023-03-31T01:03:23.385Z,13.27
2023-03-31T01:05:52.445Z,12.70
2023-03-31T01:08:20.603Z,12.33
2023-03-31T01:10:50.560Z,9.77
2023-03-31T01:13:19.626Z,10.20
2023-03-31T01:15:47.017Z,8.60
2023-03-31T01:18:39.987Z,17.17
2023-03-31T01:21:29.592Z,11.70
2023-03-31T01:27:20.163Z,13.03
2023-03-31T01:30:02.310Z,12.30
2023-03-31T01:32:44.532Z,14.50
2023-03-31T01:35:20.509Z,12.47
2023-03-31T01:40:35.036Z,10.30
2023-03-31T01:43:06.967Z,12.10
2023-03-31T01:45:39.473Z,7.10
2023-03-31T01:48:30.668Z,12.30
2023-03-31T01:54:39.923Z,11.30
2023-03-31T01:57:12.770Z,11.13
2023-03-31T01:59:41.841Z,14.43
2023-03-31T02:02:11.392Z,12.77
2023-03-31T02:04:40.725Z,10.33
2023-03-31T02:07:25.337Z,20.63
2023-03-31T02:09:56.724Z,13.27
2023-03-31T02:12:26.842Z,7.90
2023-03-31T02:14:55.693Z,11.07
2023-03-31T02:17:42.890Z,11.87
2023-03-31T02:24:26.727Z,10.13
2023-03-31T02:26:55.917Z,11.80
2023-03-31T02:29:24.749Z,10.40
2023-03-31T02:31:55.436Z,12.47
2023-03-31T02:34:22.832Z,10.17
2023-03-31T02:37:08.629Z,10.50
2023-03-31T02:39:37.386Z,9.77
2023-03-31T02:42:04.986Z,10.83
2023-03-31T02:44:33.643Z,11.87
2023-03-31T02:47:20.831Z,10.93
2023-03-31T02:50:04.198Z,7.13
2023-03-31T02:52:55.457Z,7.27
2023-03-31T02:58:56.770Z,8.33
2023-03-31T03:01:42.304Z,8.40
2023-03-31T03:04:17.523Z,9.70
2023-03-31T03:07:02.950Z,9.57
2023-03-31T03:09:35.839Z,6.27
2023-03-31T03:12:08.493Z,6.20
2023-03-31T03:14:37.663Z,8.53
2023-03-31T03:17:26.754Z,5.77
2023-03-31T03:23:55.207Z,5.90
2023-03-31T03:26:24.108Z,7.80
2023-03-31T03:28:51.542Z,5.70
2023-03-31T03:31:18.838Z,4.67
2023-03-31T03:33:46.339Z,4.43
2023-03-31T03:36:13.656Z,4.60
2023-03-31T03:38:41.265Z,4.50
2023-03-31T03:41:08.633Z,4.20
2023-03-31T03:43:37.440Z,7.10
2023-03-31T03:46:05.447Z,3.70
2023-03-31T03:52:20.317Z,4.83
2023-03-31T03:54:47.675Z,10.77
2023-03-31T03:57:15.440Z,6.70
2023-03-31T03:59:44.170Z,7.63
2023-03-31T04:02:11.779Z,9.17
2023-03-31T04:04:39.188Z,6.50
2023-03-31T04:07:21.781Z,6.60
2023-03-31T04:09:49.012Z,8.60
2023-03-31T04:12:16.369Z,9.07
2023-03-31T04:14:45.311Z,8.77
2023-03-31T04:17:33.506Z,4.60
2023-03-31T04:20:25.059Z,10.30
2023-03-31T04:23:07.837Z,11.03
2023-03-31T04:25:35.117Z,7.17
2023-03-31T04:28:02.421Z,8.07
2023-03-31T04:30:31.318Z,5.10
2023-03-31T04:32:59.445Z,5.87
2023-03-31T04:35:28.049Z,6.03
2023-03-31T04:37:55.459Z,10.97
2023-03-31T04:40:22.715Z,4.07
2023-03-31T04:42:50.012Z,5.73
2023-03-31T04:45:17.634Z,5.43
2023-03-31T04:51:40.958Z,7.73
2023-03-31T04:54:09.677Z,7.27
2023-03-31T04:56:37.031Z,5.40
2023-03-31T04:59:05.551Z,4.33
2023-03-31T05:01:33.357Z,6.20
2023-03-31T05:04:00.761Z,5.50
2023-03-31T05:06:43.196Z,4.10
2023-03-31T05:09:12.016Z,3.80
2023-03-31T05:11:39.278Z,3.30
2023-03-31T05:14:06.542Z,4.13
2023-03-31T05:20:24.800Z,3.73
2023-03-31T05:22:52.115Z,3.73
2023-03-31T05:25:20.680Z,4.33
2023-03-31T05:27:48.119Z,3.87
2023-03-31T05:30:15.440Z,3.90
2023-03-31T05:32:42.737Z,4.77
2023-03-31T05:37:59.589Z,3.83
2023-03-31T05:40:28.279Z,3.10
2023-03-31T05:42:55.918Z,2.37
2023-03-31T05:45:23.266Z,4.43
2023-03-31T05:47:50.702Z,4.40
2023-03-31T05:50:24.507Z,4.73
2023-03-31T05:53:13.701Z,4.70
2023-03-31T05:55:59.078Z,4.40
2023-03-31T05:58:26.704Z,3.87
2023-03-31T06:01:01.286Z,3.97
2023-03-31T06:03:28.665Z,3.47
2023-03-31T06:05:56.064Z,2.33
2023-03-31T06:08:23.320Z,8.07
2023-03-31T06:10:50.649Z,3.00
2023-03-31T06:13:19.332Z,4.93
2023-03-31T06:15:53.553Z,5.00
2023-03-31T06:18:20.946Z,4.90
2023-03-31T06:21:22.577Z,3.93
2023-03-31T06:27:25.320Z,6.87
2023-03-31T06:29:54.258Z,5.13
2023-03-31T06:32:21.464Z,7.07
2023-03-31T06:34:48.795Z,7.53
2023-03-31T06:37:16.053Z,5.30
2023-03-31T06:39:43.546Z,5.07
2023-03-31T06:42:11.211Z,8.23
2023-03-31T06:44:41.295Z,5.30
2023-03-31T06:47:09.928Z,5.50
2023-03-31T06:49:37.353Z,3.50
2023-03-31T06:52:04.992Z,4.77
2023-03-31T06:54:32.393Z,5.80
2023-03-31T06:56:59.660Z,6.30
2023-03-31T06:59:26.964Z,4.77
2023-03-31T07:01:54.360Z,6.33
2023-03-31T07:04:23.095Z,7.23
2023-03-31T07:06:50.421Z,8.13
2023-03-31T07:12:04.330Z,7.10
2023-03-31T07:14:31.678Z,6.47
2023-03-31T07:16:58.978Z,7.27
2023-03-31T07:19:27.555Z,7.03
2023-03-31T07:21:55.068Z,9.97
2023-03-31T07:34:11.276Z,9.77
2023-03-31T07:36:39.878Z,7.10
2023-03-31T07:39:07.326Z,9.63
2023-03-31T07:41:40.229Z,9.30
2023-03-31T07:44:07.610Z,12.67
2023-03-31T07:46:34.946Z,10.57
2023-03-31T07:49:02.384Z,13.17
2023-03-31T07:51:29.632Z,13.83
2023-03-31T07:53:58.596Z,12.23
2023-03-31T07:56:31.296Z,9.73
2023-03-31T07:58:58.731Z,13.03
2023-03-31T08:01:26.913Z,14.37
2023-03-31T08:03:54.502Z,15.07
2023-03-31T08:10:15.514Z,6.87
2023-03-31T08:12:42.883Z,7.70
2023-03-31T08:15:10.630Z,15.87
2023-03-31T08:17:40.260Z,13.10
2023-03-31T08:20:08.440Z,10.70
2023-03-31T08:22:35.960Z,12.07
2023-03-31T08:25:09.412Z,15.13
2023-03-31T08:27:39.848Z,15.33
2023-03-31T08:30:07.852Z,11.87
2023-03-31T08:32:35.576Z,16.67
2023-03-31T08:35:31.080Z,19.00
2023-03-31T08:41:43.747Z,15.23
2023-03-31T08:44:16.032Z,21.60
2023-03-31T08:46:43.734Z,16.83
2023-03-31T08:49:14.528Z,6.93
2023-03-31T08:51:42.733Z,18.20
2023-03-31T08:54:15.007Z,15.87
2023-03-31T08:56:45.454Z,8.17
2023-03-31T08:59:18.366Z,12.93
2023-03-31T09:01:56.318Z,16.43
2023-03-31T09:04:29.194Z,12.33
2023-03-31T09:07:00.045Z,12.53
2023-03-31T09:12:02.606Z,13.27
2023-03-31T09:14:34.100Z,14.03
2023-03-31T09:17:07.893Z,17.87
2023-03-31T09:19:38.397Z,12.30
2023-03-31T09:22:07.380Z,15.63
2023-03-31T09:31:22.846Z,19.47
2023-03-31T09:33:52.716Z,18.67
2023-03-31T09:36:21.270Z,14.23
2023-03-31T09:38:48.841Z,15.53
2023-03-31T09:41:16.908Z,16.27
2023-03-31T09:43:44.205Z,12.20
2023-03-31T09:46:16.313Z,13.57
2023-03-31T09:48:50.503Z,25.23
2023-03-31T09:51:19.772Z,14.90
2023-03-31T09:53:49.692Z,16.03
2023-03-31T09:56:32.800Z,17.53
2023-03-31T09:59:02.175Z,15.73
2023-03-31T10:01:29.844Z,14.00
2023-03-31T10:03:58.565Z,18.67
2023-03-31T10:06:26.355Z,15.23
2023-03-31T10:08:56.128Z,17.73
2023-03-31T10:11:23.822Z,17.83
2023-03-31T10:13:51.350Z,16.17
2023-03-31T10:16:22.983Z,14.13
2023-03-31T10:18:50.707Z,18.20
2023-03-31T10:21:21.553Z,13.47
2023-03-31T10:23:49.731Z,12.13
2023-03-31T10:26:18.270Z,12.67
2023-03-31T10:28:55.503Z,11.40
2023-03-31T10:31:38.354Z,14.53
2023-03-31T10:34:18.776Z,12.97
2023-03-31T10:36:49.261Z,13.40
2023-03-31T10:39:17.737Z,12.03
2023-03-31T10:41:50.415Z,9.60
2023-03-31T10:44:31.806Z,6.93
2023-03-31T10:47:04.752Z,13.40
2023-03-31T10:49:39.918Z,13.30
2023-03-31T10:52:16.473Z,10.30
2023-03-31T10:54:47.706Z,10.30
2023-03-31T10:57:16.192Z,11.77
2023-03-31T11:00:02.394Z,12.10
2023-03-31T11:02:49.189Z,7.03
2023-03-31T11:05:20.152Z,16.30
2023-03-31T11:07:53.594Z,13.83
2023-03-31T11:10:35.738Z,9.20
2023-03-31T11:13:05.787Z,8.40
2023-03-31T11:15:37.646Z,8.23
2023-03-31T11:20:52.520Z,9.07
2023-03-31T11:23:26.061Z,7.77
2023-03-31T11:25:56.354Z,7.57
2023-03-31T11:35:55.134Z,6.80
2023-03-31T11:38:40.356Z,7.00
2023-03-31T11:41:12.336Z,10.80
2023-03-31T11:43:43.697Z,6.00
2023-03-31T11:46:13.108Z,8.53
2023-03-31T11:48:56.730Z,6.47
2023-03-31T11:51:26.101Z,8.70
2023-03-31T11:53:54.856Z,8.40
2023-03-31T11:56:25.968Z,10.17
2023-03-31T12:02:45.965Z,4.97
2023-03-31T12:05:14.053Z,10.80
2023-03-31T12:07:44.857Z,9.27
2023-03-31T12:10:18.738Z,6.73
2023-03-31T12:12:49.580Z,6.83
2023-03-31T12:15:20.431Z,8.93
2023-03-31T12:17:56.806Z,9.03
2023-03-31T12:20:27.496Z,12.93
2023-03-31T12:22:55.258Z,8.93
2023-03-31T12:25:23.087Z,10.33
2023-03-31T12:28:11.137Z,8.43
2023-03-31T12:31:03.228Z,8.23
2023-03-31T12:33:44.153Z,9.47
2023-03-31T12:36:17.638Z,7.63
2023-03-31T12:38:56.072Z,11.03
2023-03-31T12:41:26.181Z,8.60
2023-03-31T12:44:01.388Z,5.87
2023-03-31T12:49:38.893Z,7.13
2023-03-31T12:52:07.658Z,8.80
2023-03-31T12:54:49.401Z,7.57
2023-03-31T12:57:23.519Z,7.57
2023-03-31T13:06:54.469Z,6.27
2023-03-31T13:09:42.403Z,8.07
2023-03-31T13:12:10.512Z,7.33
2023-03-31T13:14:38.333Z,5.87
2023-03-31T13:19:48.097Z,3.60
2023-03-31T13:22:29.794Z,7.20
2023-03-31T13:25:27.489Z,7.93
2023-03-31T13:34:37.795Z,8.73
2023-03-31T13:37:11.957Z,3.93
2023-03-31T13:39:49.041Z,5.93
2023-03-31T13:42:34.299Z,6.83
2023-03-31T13:45:06.213Z,6.67
2023-03-31T13:47:49.799Z,9.57
2023-03-31T13:50:22.421Z,6.57
2023-03-31T13:52:55.960Z,6.73
2023-03-31T13:55:37.388Z,5.37
2023-03-31T14:01:55.535Z,5.20
2023-03-31T14:04:31.732Z,7.97
2023-03-31T14:07:00.087Z,8.30
2023-03-31T14:09:30.238Z,8.33
2023-03-31T14:11:59.468Z,6.87
2023-03-31T14:14:26.904Z,6.63
2023-03-31T14:17:11.526Z,7.10
2023-03-31T14:19:47.675Z,7.33
2023-03-31T14:22:20.264Z,7.73
2023-03-31T14:24:51.689Z,6.10
2023-03-31T14:27:55.547Z,7.20
2023-03-31T14:33:33.396Z,7.30
2023-03-31T14:36:09.640Z,5.80
2023-03-31T14:38:36.915Z,8.80
2023-03-31T14:41:04.420Z,7.07
2023-03-31T14:43:32.954Z,7.37
2023-03-31T14:48:50.816Z,6.40
2023-03-31T14:51:24.890Z,8.33
2023-03-31T14:53:56.814Z,6.60
2023-03-31T14:56:32.326Z,6.57
2023-03-31T14:59:11.944Z,9.50
2023-03-31T15:01:59.667Z,7.10
2023-03-31T15:04:41.247Z,6.73
2023-03-31T15:07:11.645Z,5.83
2023-03-31T15:09:39.339Z,7.30
2023-03-31T15:12:08.399Z,5.97
2023-03-31T15:14:37.212Z,8.03
2023-03-31T15:17:04.549Z,6.30
2023-03-31T15:19:34.037Z,6.83
2023-03-31T15:22:03.581Z,8.13
2023-03-31T15:24:32.753Z,5.33
2023-03-31T15:30:21.846Z,5.90
2023-03-31T15:32:49.273Z,4.97
2023-03-31T15:35:22.308Z,3.83
2023-03-31T15:37:50.912Z,7.07
2023-03-31T15:40:21.870Z,8.03
2023-03-31T15:43:01.970Z,5.17
2023-03-31T15:45:54.609Z,4.93
2023-03-31T15:48:23.357Z,4.97
2023-03-31T15:50:50.666Z,4.13
2023-03-31T15:53:35.640Z,4.93
2023-03-31T15:56:22.640Z,6.47
2023-03-31T16:02:04.300Z,3.93
2023-03-31T16:04:32.063Z,3.57
2023-03-31T16:07:00.596Z,4.93
2023-03-31T16:09:30.240Z,4.27
2023-03-31T16:11:58.477Z,4.77
2023-03-31T16:14:27.187Z,6.17
2023-03-31T16:16:56.285Z,5.17
2023-03-31T16:19:25.814Z,4.97
2023-03-31T16:21:54.489Z,5.70
2023-03-31T16:24:22.251Z,4.70
2023-03-31T16:26:49.649Z,4.83
2023-03-31T16:29:20.846Z,4.40
2023-03-31T16:35:09.913Z,4.60
2023-03-31T16:37:37.277Z,6.97
2023-03-31T16:40:05.261Z,5.77
2023-03-31T16:42:32.519Z,6.00
2023-03-31T16:45:13.109Z,4.53
2023-03-31T16:47:45.827Z,4.73
2023-03-31T16:53:03.995Z,3.60
2023-03-31T16:55:31.333Z,5.97
2023-03-31T16:57:58.679Z,8.27
2023-03-31T17:07:11.789Z,16.43
2023-03-31T17:09:40.667Z,16.50
2023-03-31T17:12:07.942Z,17.43
2023-03-31T17:14:35.243Z,19.30
2023-03-31T17:17:02.525Z,19.83
2023-03-31T17:22:19.700Z,16.17
2023-03-31T17:24:48.790Z,21.70
2023-03-31T17:27:16.211Z,13.80
2023-03-31T17:29:43.491Z,20.70
2023-03-31T17:32:10.993Z,24.57
2023-03-31T17:34:56.582Z,19.70
2023-03-31T17:40:46.666Z,24.27
2023-03-31T17:43:15.471Z,24.33
2023-03-31T17:45:42.677Z,19.43
2023-03-31T17:48:10.045Z,25.53
2023-03-31T17:50:37.866Z,28.17
2023-03-31T17:53:05.576Z,23.73
2023-03-31T17:58:24.324Z,19.60
2023-03-31T18:00:51.630Z,24.07
2023-03-31T18:03:18.910Z,25.37
2023-03-31T18:05:46.267Z,22.93
2023-03-31T18:08:13.598Z,21.17
2023-03-31T18:14:35.189Z,20.33
2023-03-31T18:17:03.870Z,19.93
2023-03-31T18:19:31.342Z,25.40
2023-03-31T18:21:58.769Z,25.90
2023-03-31T18:24:26.490Z,29.33
2023-03-31T18:26:54.091Z,20.77
2023-03-31T18:29:33.724Z,19.07
2023-03-31T18:32:01.192Z,13.87
2023-03-31T18:34:29.980Z,21.30
2023-03-31T18:36:57.259Z,15.20
2023-03-31T18:46:40.673Z,26.47
2023-03-31T18:49:08.013Z,27.47
2023-03-31T18:51:36.917Z,32.50
2023-03-31T18:54:04.584Z,30.03
2023-03-31T18:56:31.855Z,40.13
2023-03-31T18:59:14.697Z,28.57
2023-03-31T19:01:42.251Z,33.17
2023-03-31T19:04:09.800Z,30.50
2023-03-31T19:06:38.450Z,33.10
2023-03-31T19:09:29.227Z,26.23
2023-03-31T19:15:34.578Z,24.03
2023-03-31T19:18:01.863Z,18.43
2023-03-31T19:20:29.129Z,25.27
2023-03-31T19:22:57.801Z,18.90
2023-03-31T19:25:25.008Z,16.73
2023-03-31T19:30:28.497Z,15.17
2023-03-31T19:32:56.113Z,21.80
2023-03-31T19:35:23.444Z,21.00
2023-03-31T19:37:51.004Z,17.77
2023-03-31T19:44:09.128Z,18.27
2023-03-31T19:46:36.444Z,19.43
2023-03-31T19:49:03.726Z,16.97
2023-03-31T19:51:31.060Z,28.37
2023-03-31T19:53:58.704Z,25.63
2023-03-31T19:56:26.116Z,24.40
2023-03-31T19:59:10.463Z,27.00
2023-03-31T20:01:38.218Z,20.30
2023-03-31T20:04:06.225Z,16.77
2023-03-31T20:06:35.112Z,17.53
2023-03-31T20:12:35.433Z,27.03
2023-03-31T20:15:04.382Z,24.20
2023-03-31T20:17:31.578Z,33.23
2023-03-31T20:19:58.941Z,25.07
2023-03-31T20:22:26.413Z,28.83
2023-03-31T20:24:53.672Z,23.03
2023-03-31T20:30:12.553Z,26.47
2023-03-31T20:32:40.165Z,17.17
2023-03-31T20:35:07.576Z,21.73
2023-03-31T20:37:47.589Z,18.93
2023-03-31T20:40:27.670Z,26.80
2023-03-31T20:43:10.356Z,25.27
2023-03-31T20:45:38.972Z,21.27
2023-03-31T20:48:06.333Z,29.13
2023-03-31T20:50:33.714Z,14.57
2023-03-31T20:53:00.930Z,13.93
2023-03-31T20:55:28.272Z,19.10
2023-03-31T20:57:55.999Z,21.80
2023-03-31T21:00:23.679Z,20.07
2023-03-31T21:02:52.436Z,16.73
2023-03-31T21:05:19.779Z,21.40
2023-03-31T21:08:08.747Z,23.90
2023-03-31T21:11:01.703Z,27.83
2023-03-31T21:13:34.624Z,19.97
2023-03-31T21:16:02.419Z,21.77
2023-03-31T21:18:31.651Z,20.37
2023-03-31T21:20:59.596Z,21.30
2023-03-31T21:23:27.639Z,12.33
2023-03-31T21:25:55.578Z,23.03
2023-03-31T21:28:24.067Z,26.17
2023-03-31T21:30:51.516Z,21.60
2023-03-31T21:33:19.428Z,20.50
2023-03-31T21:35:48.129Z,19.27
2023-03-31T21:42:06.457Z,13.20
2023-03-31T21:44:33.717Z,12.23
2023-03-31T21:47:00.930Z,15.03
2023-03-31T21:49:28.152Z,18.23
2023-03-31T21:51:56.722Z,11.23
2023-03-31T21:54:23.982Z,19.13
2023-03-31T21:59:40.908Z,29.33
2023-03-31T22:02:08.364Z,34.03
2023-03-31T22:04:35.656Z,23.97
2023-03-31T22:07:04.834Z,30.60
2023-03-31T22:09:32.029Z,35.87
2023-03-31T22:18:45.653Z,31.03
2023-03-31T22:21:16.867Z,38.33
2023-03-31T22:23:45.615Z,37.10
2023-03-31T22:26:13.232Z,33.87
2023-03-31T22:28:40.511Z,35.80
2023-03-31T22:31:27.964Z,36.30
2023-03-31T22:33:55.281Z,36.10
2023-03-31T22:36:22.767Z,42.33
2023-03-31T22:38:52.276Z,39.13
2023-03-31T22:47:40.720Z,43.13
2023-03-31T22:50:08.460Z,32.70
2023-03-31T22:52:35.690Z,30.83
2023-03-31T22:55:04.611Z,26.57
2023-03-31T22:57:32.181Z,30.13
2023-03-31T22:59:59.449Z,24.97
2023-03-31T23:02:27.106Z,29.97
2023-03-31T23:04:54.412Z,25.40
2023-03-31T23:07:21.900Z,36.20
2023-03-31T23:09:49.346Z,29.63
2023-03-31T23:12:36.382Z,31.00
2023-03-31T23:18:13.880Z,37.73
2023-03-31T23:20:41.175Z,28.27
2023-03-31T23:23:08.405Z,45.27
2023-03-31T23:25:35.590Z,40.33
2023-03-31T23:28:04.312Z,59.10
2023-03-31T23:30:37.200Z,42.73
2023-03-31T23:33:04.714Z,45.97
2023-03-31T23:35:32.269Z,57.73
2023-03-31T23:37:59.698Z,56.23
2023-03-31T23:40:27.003Z,46.03
2023-03-31T23:43:08.434Z,49.70
2023-03-31T23:45:51.150Z,44.33
2023-03-31T23:48:18.377Z,42.43
2023-03-31T23:50:45.936Z,40.63
2023-03-31T23:53:13.560Z,52.57
2023-03-31T23:55:40.901Z,29.30
2023-03-31T23:58:09.551Z,32.70
